Time;durP1;ratioP1;P1;durP2;ratioP2;P2;SDS_P1;SDS_P2;PMS_P1;PMS_P2;Temp;Humidity;BMP_temperature;BMP_pressure;BME280_temperature;BME280_humidity;BME280_pressure;Samples;Min_cycle;Max_cycle;Signal;HPM_P1;HPM_P2
2022/07/13 07:58:53;;;;;;;9.43;5.70;;;;;;;23.80;57.90;101778.44;5322580;27;20387;-70
2022/07/13 08:01:24;;;;;;;11.63;5.63;;;;;;;23.88;58.56;101776.66;5321571;28;20024;-69
2022/07/13 08:03:55;;;;;;;8.85;5.40;;;;;;;23.90;58.71;101776.25;5313192;28;20025;-70
2022/07/13 08:06:27;;;;;;;15.32;6.72;;;;;;;23.98;58.15;101778.13;5304482;28;20026;-70
2022/07/13 08:08:58;;;;;;;24.50;6.40;;;;;;;24.06;58.01;101774.34;5318441;28;20028;-70
2022/07/13 08:11:29;;;;;;;11.35;5.90;;;;;;;24.18;58.52;101782.78;5300815;28;20099;-70
2022/07/13 08:14:02;;;;;;;14.77;6.15;;;;;;;24.24;58.71;101783.38;5300401;28;20028;-71
2022/07/13 08:16:33;;;;;;;7.28;5.95;;;;;;;24.16;58.56;101790.84;5301092;28;20468;-70
2022/07/13 08:19:05;;;;;;;7.72;5.60;;;;;;;24.16;58.85;101785.16;5300912;28;20113;-71
2022/07/13 08:21:36;;;;;;;9.13;6.55;;;;;;;24.23;59.28;101778.88;5300369;28;20357;-71
2022/07/13 08:24:07;;;;;;;9.15;5.88;;;;;;;24.29;59.23;101783.91;5301521;28;20044;-71
2022/07/13 08:26:39;;;;;;;9.05;6.47;;;;;;;24.34;59.00;101793.34;5310196;28;20463;-71
2022/07/13 08:29:13;;;;;;;12.32;7.07;;;;;;;24.29;59.37;101795.25;5306092;28;20104;-71
2022/07/13 08:31:44;;;;;;;10.52;6.57;;;;;;;24.25;59.73;101794.31;5299562;28;20024;-72
2022/07/13 08:39:56;;;;;;;7.40;5.82;;;;;;;24.50;59.46;101789.41;5300596;28;20036;-70
2022/07/13 08:42:27;;;;;;;11.85;6.55;;;;;;;24.55;59.04;101796.81;5300013;28;20400;-70
2022/07/13 08:44:59;;;;;;;7.75;5.47;;;;;;;24.64;58.97;101794.63;5320211;28;20114;-70
2022/07/13 08:47:30;;;;;;;13.13;6.10;;;;;;;24.76;58.85;101795.75;5321823;28;20024;-71
2022/07/13 08:50:05;;;;;;;7.07;5.00;;;;;;;24.84;58.79;101797.59;5320622;28;20026;-70
2022/07/13 08:52:39;;;;;;;10.38;5.80;;;;;;;24.82;58.34;101799.97;5321291;28;20020;-70
2022/07/13 08:55:10;;;;;;;5.97;5.32;;;;;;;24.83;58.26;101793.13;5316578;28;20025;-72
2022/07/13 08:57:42;;;;;;;6.63;4.97;;;;;;;24.89;58.36;101797.31;5322467;28;20039;-70
2022/07/13 09:00:14;;;;;;;8.93;5.53;;;;;;;24.86;58.43;101795.22;5334176;28;20024;-70
2022/07/13 09:02:48;;;;;;;6.22;4.78;;;;;;;24.95;58.16;101798.69;5323289;28;20062;-70
2022/07/13 09:05:20;;;;;;;5.88;5.25;;;;;;;24.89;57.76;101797.31;5331186;28;20030;-69
2022/07/13 09:08:05;;;;;;;10.05;5.20;;;;;;;25.03;57.10;101806.22;5320905;28;20020;-69
2022/07/13 09:10:57;;;;;;;9.90;6.15;;;;;;;25.03;57.72;101806.22;5309873;28;20026;-69
2022/07/13 09:13:40;;;;;;;5.43;4.90;;;;;;;25.04;56.57;101819.19;5327616;28;20031;-69
2022/07/13 09:16:29;;;;;;;6.00;4.68;;;;;;;25.07;56.13;101806.28;5317857;28;20025;-70
2022/07/13 09:19:01;;;;;;;5.93;4.68;;;;;;;25.11;55.42;101801.53;5306416;28;20360;-69
2022/07/13 09:21:32;;;;;;;5.32;3.90;;;;;;;25.27;55.32;101807.25;5306969;28;20035;-68
2022/07/13 09:24:04;;;;;;;6.68;4.63;;;;;;;25.22;55.07;101804.69;5306430;28;20030;-69
2022/07/13 09:26:45;;;;;;;25.00;22.92;;;;;;;25.23;55.23;101821.31;5306778;28;20036;-69
2022/07/13 09:29:21;;;;;;;46.38;42.03;;;;;;;25.21;55.18;101806.69;5306497;28;20027;-69
2022/07/13 09:31:55;;;;;;;38.08;34.38;;;;;;;25.30;55.50;101803.66;5313125;28;20505;-69
2022/07/13 09:34:47;;;;;;;7.47;4.57;;;;;;;25.34;56.01;101810.25;5320214;28;20379;-69
2022/07/13 09:37:30;;;;;;;6.80;4.43;;;;;;;25.26;54.90;101814.09;5307470;28;20036;-68
2022/07/13 09:40:09;;;;;;;17.90;15.70;;;;;;;25.23;55.30;101809.97;5306258;28;20024;-68
2022/07/13 09:42:42;;;;;;;9.90;7.85;;;;;;;25.21;54.86;101809.53;5309042;28;20106;-69
2022/07/13 09:48:13;;;;;;;6.95;4.32;;;;;;;25.25;54.91;101803.94;5314059;28;20127;-69
2022/07/13 09:50:52;;;;;;;10.40;4.15;;;;;;;25.29;54.16;101802.84;5325690;28;20367;-69
2022/07/13 09:53:31;;;;;;;6.00;3.58;;;;;;;25.32;53.93;101813.47;5304892;28;20055;-69
2022/07/13 09:56:04;;;;;;;4.47;3.35;;;;;;;25.23;54.30;101814.84;5306056;28;20046;-68
2022/07/13 09:58:39;;;;;;;7.18;3.50;;;;;;;25.33;54.10;101815.09;5310360;28;20571;-65
2022/07/13 10:01:11;;;;;;;;;;;;;;;25.40;51.68;101831.50;5324197;28;20431;-67
2022/07/13 10:03:43;;;;;;;4.55;3.10;;;;;;;25.36;51.61;101822.91;5316184;28;19951;-68
2022/07/13 10:06:15;;;;;;;4.43;3.30;;;;;;;25.35;50.73;101821.22;5314813;28;20027;-69
2022/07/13 10:08:53;;;;;;;5.50;3.75;;;;;;;25.26;49.37;101819.78;5316166;28;20471;-72
2022/07/13 10:11:24;;;;;;;4.60;4.13;;;;;;;25.36;50.28;101825.75;5324863;28;20088;-70
2022/07/13 10:13:57;;;;;;;4.85;3.05;;;;;;;25.44;50.81;101826.75;5326528;28;20031;-68
2022/07/13 10:16:30;;;;;;;5.70;3.08;;;;;;;25.30;51.06;101829.22;5327041;28;20032;-69
2022/07/13 10:19:05;;;;;;;3.13;2.63;;;;;;;25.35;49.89;101826.09;5325288;28;20491;-68
2022/07/13 10:21:49;;;;;;;5.80;3.05;;;;;;;25.45;49.80;101828.38;5325088;28;20372;-69
2022/07/13 10:24:20;;;;;;;6.00;3.17;;;;;;;25.39;49.99;101829.84;5306449;28;20032;-70
2022/07/13 10:27:20;;;;;;;3.60;3.13;;;;;;;25.39;50.58;101821.34;5316673;28;20036;-68
2022/07/13 10:29:58;;;;;;;3.72;2.60;;;;;;;25.53;50.82;101827.34;5308746;28;20089;-67
2022/07/13 10:32:32;;;;;;;6.63;3.17;;;;;;;25.52;50.80;101828.56;5305036;28;20059;-70
2022/07/13 10:35:12;;;;;;;13.57;12.25;;;;;;;25.57;51.42;101828.28;5286061;28;20081;-71
2022/07/13 10:37:55;;;;;;;10.90;8.90;;;;;;;25.58;50.96;101834.78;5305121;28;20482;-70
2022/07/13 10:40:31;;;;;;;6.03;3.17;;;;;;;25.59;51.19;101836.41;5317798;28;20023;-70
2022/07/13 10:43:05;;;;;;;6.50;3.15;;;;;;;25.54;50.09;101834.69;5313841;28;20489;-70
2022/07/13 10:45:41;;;;;;;4.68;2.95;;;;;;;25.39;49.88;101832.69;5305064;28;20039;-69
2022/07/13 10:48:21;;;;;;;4.65;3.35;;;;;;;25.45;50.36;101833.22;5305644;28;20016;-70
2022/07/13 10:50:55;;;;;;;4.20;3.00;;;;;;;25.48;50.09;101827.63;5316553;28;20063;-69
2022/07/13 10:53:39;;;;;;;9.02;3.38;;;;;;;25.76;50.03;101838.03;5304743;28;20081;-69
2022/07/13 10:56:18;;;;;;;6.90;3.45;;;;;;;25.81;50.12;101840.59;5305543;28;20031;-68
2022/07/13 10:58:50;;;;;;;3.30;2.95;;;;;;;25.75;50.34;101839.25;5322483;28;20457;-69
2022/07/13 11:01:30;;;;;;;4.18;3.30;;;;;;;25.87;50.86;101844.81;5326259;28;20471;-69
2022/07/13 11:04:03;;;;;;;8.65;5.70;;;;;;;25.91;50.03;101834.34;5325182;28;20020;-70
2022/07/13 11:06:36;;;;;;;5.38;3.60;;;;;;;25.83;50.23;101846.72;5326027;28;20386;-72
2022/07/13 11:09:20;;;;;;;6.32;4.15;;;;;;;25.86;50.42;101848.84;5308783;28;20024;-69
2022/07/13 11:11:53;;;;;;;7.85;4.40;;;;;;;25.77;50.18;101843.34;5325701;28;20023;-70
2022/07/13 11:14:40;;;;;;;5.75;3.10;;;;;;;25.84;49.85;101845.53;5323958;28;20080;-69
2022/07/13 11:17:16;;;;;;;5.60;3.15;;;;;;;25.86;49.80;101848.03;5309940;28;20032;-67
2022/07/13 11:19:49;;;;;;;4.18;3.15;;;;;;;25.90;49.63;101844.09;5309311;28;20456;-69
2022/07/13 11:22:21;;;;;;;5.88;3.00;;;;;;;25.97;50.04;101844.22;5306944;28;20024;-68
2022/07/13 11:25:15;;;;;;;5.43;2.60;;;;;;;26.05;49.43;101850.06;5303254;28;20478;-69
2022/07/13 11:28:06;;;;;;;3.97;3.35;;;;;;;26.19;49.15;101841.88;5303002;28;20032;-70
2022/07/13 11:30:43;;;;;;;4.90;2.85;;;;;;;26.37;49.18;101831.69;5304096;28;20103;-71
2022/07/13 11:33:15;;;;;;;6.40;2.97;;;;;;;26.43;48.43;101833.06;5309345;28;20035;-70
2022/07/13 11:35:47;;;;;;;5.10;2.55;;;;;;;26.51;47.05;101841.72;5318681;28;20024;-71
2022/07/13 11:38:20;;;;;;;6.38;3.15;;;;;;;26.58;47.51;101842.72;5303190;28;20387;-71
2022/07/13 11:40:52;;;;;;;4.88;3.60;;;;;;;26.48;48.15;101840.44;5307224;28;20023;-71
2022/07/13 11:43:23;;;;;;;3.25;2.55;;;;;;;26.60;47.98;101843.16;5306720;28;20030;-69
2022/07/13 11:45:54;;;;;;;23.85;21.45;;;;;;;26.52;47.33;101847.06;5302772;28;20583;-69
2022/07/13 11:48:31;;;;;;;21.08;18.15;;;;;;;26.51;47.25;101841.72;5309325;28;20475;-70
2022/07/13 11:51:08;;;;;;;4.93;2.78;;;;;;;26.43;46.98;101850.13;5322978;28;20030;-70
2022/07/13 11:53:39;;;;;;;4.78;2.80;;;;;;;26.35;47.16;101836.94;5321579;28;20031;-70
2022/07/13 11:56:10;;;;;;;5.70;4.93;;;;;;;26.29;46.07;101832.75;5303370;28;20128;-68
2022/07/13 11:58:45;;;;;;;5.38;3.00;;;;;;;26.31;46.82;101841.72;5302673;28;20599;-70
2022/07/13 12:01:18;;;;;;;3.85;2.53;;;;;;;26.20;47.13;101834.97;5303753;28;20028;-70
2022/07/13 12:03:50;;;;;;;5.00;2.30;;;;;;;26.31;47.80;101830.34;5303812;28;20420;-70
2022/07/13 12:06:26;;;;;;;3.00;2.60;;;;;;;26.43;47.81;101835.91;5315253;28;20043;-70
2022/07/13 12:08:57;;;;;;;35.38;31.95;;;;;;;26.30;47.69;101834.38;5317321;28;20027;-70
2022/07/13 12:11:29;;;;;;;6.70;4.53;;;;;;;26.32;48.14;101837.69;5325000;28;20127;-70
2022/07/13 12:14:00;;;;;;;4.45;2.92;;;;;;;26.46;47.87;101829.47;5323803;28;20072;-70
2022/07/13 12:16:33;;;;;;;5.13;2.55;;;;;;;26.64;46.92;101837.56;5306295;28;20413;-70
2022/07/13 12:19:08;;;;;;;5.40;2.40;;;;;;;26.97;47.05;101831.28;5320597;28;20031;-70
2022/07/13 12:21:39;;;;;;;;;;;;;;;27.04;46.11;101839.09;5306117;28;20081;-68
2022/07/13 12:24:17;;;;;;;7.13;5.85;;;;;;;26.97;45.94;101841.81;5308444;28;19977;-69
2022/07/13 12:26:52;;;;;;;6.13;2.85;;;;;;;26.70;46.29;101840.91;5318989;28;20081;-71
2022/07/13 12:29:31;;;;;;;4.65;2.75;;;;;;;26.80;46.45;101846.81;5321169;28;20376;-71
2022/07/13 12:32:03;;;;;;;4.30;2.90;;;;;;;26.86;46.57;101844.47;5303513;28;20095;-69
2022/07/13 12:34:48;;;;;;;2.72;2.45;;;;;;;26.61;46.53;101846.81;5302709;28;20111;-69
2022/07/13 12:37:36;;;;;;;3.28;2.53;;;;;;;26.59;46.04;101846.41;5302925;28;20093;-71
2022/07/13 12:40:38;;;;;;;3.63;2.55;;;;;;;26.64;46.36;101840.41;5304130;28;20024;-70
2022/07/13 12:43:40;;;;;;;3.20;2.80;;;;;;;26.71;46.96;101849.06;5317914;28;20019;-71
2022/07/13 12:46:12;;;;;;;8.02;3.45;;;;;;;26.68;47.40;101856.31;5305469;28;20040;-71
2022/07/13 12:48:44;;;;;;;4.65;3.33;;;;;;;26.75;47.70;101846.28;5307110;28;20077;-69
2022/07/13 12:51:15;;;;;;;7.68;2.92;;;;;;;26.79;47.65;101845.16;5315358;28;20028;-68
2022/07/13 12:54:00;;;;;;;6.03;3.25;;;;;;;26.77;47.64;101847.56;5324314;28;20094;-68
2022/07/13 12:56:48;;;;;;;4.80;3.08;;;;;;;26.76;47.61;101845.09;5306798;28;20020;-69
2022/07/13 12:59:22;;;;;;;3.25;2.28;;;;;;;26.58;46.16;101851.25;5321929;28;20043;-71
2022/07/13 13:01:53;;;;;;;5.80;2.47;;;;;;;26.61;46.49;101855.34;5327917;28;20133;-73
2022/07/13 13:04:24;;;;;;;4.85;2.35;;;;;;;26.66;46.35;101852.22;5327867;28;20479;-73
2022/07/13 13:06:55;;;;;;;5.57;2.58;;;;;;;26.52;45.19;101863.28;5328150;28;20402;-71
2022/07/13 13:09:27;;;;;;;4.05;2.40;;;;;;;26.56;45.29;101861.34;5311010;28;20455;-71
2022/07/13 13:12:00;;;;;;;19.25;17.23;;;;;;;26.44;44.27;101874.50;5307271;28;20032;-70
2022/07/13 13:14:31;;;;;;;5.38;4.35;;;;;;;26.43;44.07;101872.88;5306740;28;20087;-70
2022/07/13 13:17:03;;;;;;;4.90;2.80;;;;;;;26.43;44.32;101881.41;5306733;28;20035;-70
2022/07/13 13:19:34;;;;;;;3.65;2.25;;;;;;;26.24;44.44;101875.69;5306656;28;20149;-69
2022/07/13 13:22:06;;;;;;;3.90;2.28;;;;;;;26.31;44.86;101878.69;5306622;28;20020;-70
2022/07/13 13:24:38;;;;;;;5.50;2.30;;;;;;;26.21;44.99;101870.75;5305746;28;20387;-72
2022/07/13 13:27:09;;;;;;;6.13;2.90;;;;;;;26.17;46.13;101875.53;5306565;28;20043;-72
2022/07/13 13:32:31;;;;;;;3.05;2.60;;;;;;;26.27;46.56;101876.97;5313965;28;20032;-71
2022/07/13 13:35:03;;;;;;;4.40;2.50;;;;;;;26.09;45.79;101880.22;5306103;28;20028;-71
2022/07/13 13:37:34;;;;;;;3.42;2.78;;;;;;;26.05;46.14;101878.50;5319999;28;20031;-71
2022/07/13 13:40:06;;;;;;;3.00;2.40;;;;;;;26.14;46.47;101887.66;5313430;28;20053;-72
2022/07/13 13:42:37;;;;;;;4.50;2.20;;;;;;;26.09;45.08;101882.25;5321981;28;20032;-73
2022/07/13 13:45:10;;;;;;;6.07;2.85;;;;;;;26.01;44.22;101884.13;5309968;28;20024;-71
2022/07/13 13:47:42;;;;;;;16.25;12.43;;;;;;;26.11;44.80;101888.41;5326284;28;20031;-71
2022/07/13 13:50:13;;;;;;;19.13;17.17;;;;;;;25.92;44.94;101883.47;5318097;28;20486;-71
2022/07/13 13:52:45;;;;;;;4.60;2.72;;;;;;;25.95;45.39;101877.91;5306270;28;20387;-68
2022/07/13 13:55:17;;;;;;;10.68;8.90;;;;;;;25.99;45.92;101884.47;5316932;28;20065;-72
2022/07/13 13:57:48;;;;;;;3.58;2.60;;;;;;;25.93;46.17;101876.63;5305562;28;20048;-71
2022/07/13 14:00:19;;;;;;;3.75;2.45;;;;;;;26.01;46.40;101872.75;5304512;28;20036;-71
2022/07/13 14:02:50;;;;;;;3.47;2.45;;;;;;;25.96;46.78;101873.03;5305384;28;20104;-70
2022/07/13 14:05:23;;;;;;;5.38;2.85;;;;;;;25.96;47.65;101881.56;5305520;28;20459;-72
2022/07/13 14:07:55;;;;;;;3.30;2.72;;;;;;;25.96;48.43;101879.53;5322415;28;20020;-72
2022/07/13 14:10:27;;;;;;;5.25;2.95;;;;;;;25.89;49.69;101873.69;5315237;28;20023;-71
2022/07/13 14:12:58;;;;;;;6.70;3.15;;;;;;;25.81;49.91;101886.03;5308723;28;20031;-72
2022/07/13 14:15:29;;;;;;;4.90;2.90;;;;;;;25.88;48.96;101880.56;5318176;28;20107;-71
2022/07/13 14:18:01;;;;;;;6.85;4.72;;;;;;;25.83;48.90;101882.84;5326497;28;20027;-72
2022/07/13 14:20:32;;;;;;;8.30;3.53;;;;;;;25.76;49.21;101877.81;5320010;28;20016;-72
2022/07/13 14:23:03;;;;;;;6.18;2.90;;;;;;;25.74;49.35;101875.31;5307439;28;20055;-72
2022/07/13 14:25:35;;;;;;;4.43;2.72;;;;;;;25.61;49.36;101873.78;5314658;28;20035;-71
2022/07/13 14:28:06;;;;;;;7.78;6.35;;;;;;;25.64;49.16;101875.06;5325586;28;20023;-71
2022/07/13 14:30:37;;;;;;;5.95;4.20;;;;;;;25.51;46.71;101882.88;5310144;28;20024;-69
2022/07/13 14:33:10;;;;;;;2.38;1.95;;;;;;;25.46;45.65;101881.13;5304069;28;20031;-69
2022/07/13 14:35:42;;;;;;;3.63;2.15;;;;;;;25.47;45.92;101881.97;5304713;28;20034;-71
2022/07/13 14:38:14;;;;;;;3.33;2.00;;;;;;;25.57;45.89;101884.25;5315430;28;20047;-72
2022/07/13 14:40:46;;;;;;;3.45;1.88;;;;;;;25.45;45.25;101879.50;5305367;28;20108;-71
2022/07/13 14:43:17;;;;;;;4.40;2.10;;;;;;;25.41;45.79;101874.91;5321184;28;20523;-72
2022/07/13 14:45:49;;;;;;;2.88;1.80;;;;;;;25.42;46.42;101871.72;5304679;28;20124;-72
2022/07/13 14:48:20;;;;;;;3.83;2.00;;;;;;;25.30;46.80;101875.44;5304037;28;20028;-71
2022/07/13 14:50:51;;;;;;;3.28;2.45;;;;;;;25.09;47.61;101869.19;5305010;28;20442;-71
2022/07/13 14:53:23;;;;;;;4.75;2.63;;;;;;;25.28;48.86;101874.16;5310245;28;20047;-71
2022/07/13 14:55:54;;;;;;;5.18;2.67;;;;;;;25.31;49.46;101879.09;5323868;28;20077;-72
2022/07/13 14:58:25;;;;;;;6.07;2.22;;;;;;;25.16;49.51;101880.78;5309158;28;20052;-71
2022/07/13 15:00:56;;;;;;;57.42;51.72;;;;;;;25.20;49.22;101878.00;5304472;28;20028;-72
2022/07/13 15:03:28;;;;;;;28.80;26.20;;;;;;;25.22;48.52;101867.13;5304184;28;20470;-72
2022/07/13 15:05:59;;;;;;;4.95;2.75;;;;;;;25.17;48.61;101868.22;5307404;28;20020;-73
2022/07/13 15:08:31;;;;;;;3.30;2.50;;;;;;;25.19;49.19;101865.84;5314003;28;20032;-72
2022/07/13 15:11:02;;;;;;;3.40;2.30;;;;;;;25.36;49.39;101874.00;5304538;28;20047;-71
2022/07/13 15:13:33;;;;;;;5.88;2.00;;;;;;;25.11;48.00;101861.16;5304563;28;20039;-72
2022/07/13 15:16:05;;;;;;;4.43;2.55;;;;;;;25.34;48.30;101872.72;5324846;28;20504;-72
2022/07/13 15:18:36;;;;;;;3.38;3.00;;;;;;;25.24;47.91;101867.59;5325924;28;20028;-72
2022/07/13 15:21:08;;;;;;;3.95;2.35;;;;;;;25.34;48.22;101864.22;5325732;28;20114;-74
2022/07/13 15:23:39;;;;;;;2.92;2.35;;;;;;;25.34;48.52;101865.03;5315575;28;20020;-74
2022/07/13 15:26:10;;;;;;;19.27;17.75;;;;;;;25.24;48.64;101867.59;5304328;28;20034;-74
2022/07/13 15:28:42;;;;;;;7.90;6.80;;;;;;;25.26;48.90;101857.53;5310943;28;20064;-72
2022/07/13 15:31:13;;;;;;;2.92;2.28;;;;;;;25.15;49.35;101857.19;5318778;28;20433;-75
2022/07/13 15:33:44;;;;;;;3.50;2.60;;;;;;;25.03;50.28;101857.28;5307864;28;20024;-74
2022/07/13 15:36:16;;;;;;;5.07;3.10;;;;;;;25.17;50.52;101857.69;5314153;28;20140;-72
2022/07/13 15:38:47;;;;;;;21.05;19.02;;;;;;;25.34;50.68;101861.38;5315946;28;20039;-70
2022/07/13 15:41:26;;;;;;;2.70;2.47;;;;;;;25.47;51.46;101848.72;5307199;28;20031;-70
2022/07/13 15:43:59;;;;;;;8.95;4.60;;;;;;;25.52;51.74;101850.47;5307901;28;20023;-72
2022/07/13 15:46:32;;;;;;;5.93;3.40;;;;;;;25.56;52.12;101846.47;5308052;28;20020;-73
2022/07/13 15:49:04;;;;;;;3.83;3.38;;;;;;;25.67;52.07;101841.09;5314716;28;20031;-75
2022/07/13 15:51:36;;;;;;;8.27;3.00;;;;;;;25.72;52.60;101842.78;5324182;28;20027;-74
2022/07/13 15:54:07;;;;;;;5.60;3.13;;;;;;;25.78;52.54;101841.34;5325331;28;20031;-73
2022/07/13 15:56:39;;;;;;;5.60;3.22;;;;;;;25.87;52.49;101833.44;5324935;28;20107;-74
2022/07/13 15:59:10;;;;;;;11.88;4.25;;;;;;;26.06;51.86;101840.38;5324490;28;20016;-72
2022/07/13 16:01:41;;;;;;;6.55;3.92;;;;;;;26.11;51.77;101834.38;5322991;28;20083;-71
2022/07/13 16:04:13;;;;;;;6.45;3.92;;;;;;;26.15;51.61;101830.41;5305740;28;20036;-73
2022/07/13 16:06:44;;;;;;;5.35;4.82;;;;;;;26.22;51.39;101829.75;5321219;28;20023;-73
2022/07/13 16:09:16;;;;;;;4.90;3.40;;;;;;;26.39;51.47;101825.66;5324880;28;20028;-73
2022/07/13 16:11:47;;;;;;;7.65;3.70;;;;;;;26.48;51.05;101834.75;5310796;28;20028;-73
2022/07/13 16:14:21;;;;;;;6.60;3.83;;;;;;;26.54;51.03;101826.78;5310094;28;20043;-72
2022/07/13 16:16:52;;;;;;;4.60;3.85;;;;;;;26.56;51.31;101830.91;5308895;28;20417;-73
2022/07/13 16:19:24;;;;;;;4.82;4.18;;;;;;;26.58;51.35;101822.78;5324366;28;20081;-73
2022/07/13 16:21:58;;;;;;;6.10;4.15;;;;;;;26.44;51.52;101826.16;5327971;28;20028;-72
2022/07/13 16:24:29;;;;;;;5.47;4.10;;;;;;;26.44;51.31;101828.19;5315618;28;20028;-72
2022/07/13 16:27:01;;;;;;;6.82;3.80;;;;;;;26.41;51.92;101824.06;5328107;28;20039;-73
2022/07/13 16:29:33;;;;;;;5.28;3.50;;;;;;;26.44;51.66;101828.19;5328381;28;20030;-71
2022/07/13 16:32:05;;;;;;;9.50;4.15;;;;;;;26.43;51.79;101823.69;5311910;28;20036;-72
2022/07/13 16:34:36;;;;;;;5.75;3.28;;;;;;;26.37;51.11;101823.16;5307656;28;20111;-72
2022/07/13 16:37:09;;;;;;;3.05;2.60;;;;;;;26.38;48.42;101821.97;5307933;28;20578;-72
2022/07/13 16:39:40;;;;;;;7.78;3.03;;;;;;;26.42;47.79;101813.50;5316339;28;20027;-73
2022/07/13 16:42:11;;;;;;;5.45;3.70;;;;;;;26.40;47.38;101819.56;5307025;28;20035;-72
2022/07/13 16:44:43;;;;;;;5.20;2.72;;;;;;;26.31;46.98;101819.00;5323206;28;20080;-73
2022/07/13 16:47:14;;;;;;;10.20;9.30;;;;;;;26.22;46.59;101822.03;5309484;28;20038;-73
2022/07/13 16:49:45;;;;;;;8.20;6.35;;;;;;;26.60;46.56;101813.91;5306653;28;20035;-72
2022/07/13 16:52:19;;;;;;;17.52;15.68;;;;;;;26.51;46.27;101804.72;5307089;28;20037;-73
2022/07/13 16:54:51;;;;;;;3.28;2.80;;;;;;;26.67;46.40;101814.03;5307086;28;20028;-72
2022/07/13 16:57:22;;;;;;;9.15;8.25;;;;;;;26.83;46.53;101816.78;5321299;28;20040;-72
2022/07/13 16:59:53;;;;;;;5.15;3.80;;;;;;;26.96;46.82;101815.38;5314460;28;20036;-72
2022/07/13 17:02:25;;;;;;;6.82;3.10;;;;;;;27.01;47.04;101822.78;5306529;28;20042;-72
2022/07/13 17:04:57;;;;;;;3.63;2.70;;;;;;;27.14;47.08;101821.38;5306966;28;20020;-73
2022/07/13 17:07:28;;;;;;;4.32;2.90;;;;;;;27.27;47.06;101822.84;5327910;28;20463;-73
2022/07/13 17:10:00;;;;;;;8.18;3.55;;;;;;;27.18;47.05;101822.31;5326411;28;20027;-72
2022/07/13 17:12:33;;;;;;;5.57;2.72;;;;;;;27.29;47.09;101823.31;5327691;28;20459;-76
2022/07/13 17:15:06;;;;;;;6.57;2.78;;;;;;;27.34;46.95;101824.19;5326933;28;20102;-75
2022/07/13 17:17:37;;;;;;;5.50;3.38;;;;;;;27.08;46.93;101828.63;5328012;28;20375;-75
2022/07/13 17:20:10;;;;;;;3.95;3.40;;;;;;;27.01;46.96;101834.16;5317952;28;20039;-72
2022/07/13 17:22:41;;;;;;;4.03;3.30;;;;;;;26.82;47.09;101827.34;5305026;28;20105;-72
2022/07/13 17:25:13;;;;;;;5.28;2.90;;;;;;;26.71;47.62;101828.31;5306514;28;20056;-72
2022/07/13 17:27:45;;;;;;;5.88;2.95;;;;;;;26.66;47.28;101827.44;5313276;28;20153;-72
